createdAt,value
2022-10-06T00:01:32.203Z,98.65
2022-10-06T00:05:33.537Z,98.67
2022-10-06T00:09:34.841Z,98.84
2022-10-06T00:13:36.743Z,99.34
2022-10-06T00:17:38.973Z,99.99
2022-10-06T00:21:40.265Z,100.00
2022-10-06T00:25:42.299Z,100.00
2022-10-06T00:29:43.572Z,100.00
2022-10-06T00:33:45.790Z,100.00
2022-10-06T00:37:47.043Z,100.00
2022-10-06T00:41:48.380Z,100.00
2022-10-06T00:45:49.729Z,100.00
2022-10-06T00:49:53.556Z,100.00
2022-10-06T00:53:54.855Z,100.00
2022-10-06T00:57:56.219Z,100.00
2022-10-06T01:02:01.553Z,99.69
2022-10-06T01:06:04.169Z,97.74
2022-10-06T01:10:05.825Z,96.08
2022-10-06T01:14:07.635Z,94.52
2022-10-06T01:18:13.210Z,90.94
2022-10-06T01:22:16.176Z,87.88
2022-10-06T01:26:18.472Z,86.67
2022-10-06T01:30:23.725Z,86.01
2022-10-06T01:34:25.033Z,85.23
2022-10-06T01:38:26.646Z,84.58
2022-10-06T01:42:31.772Z,84.92
2022-10-06T01:46:33.240Z,84.19
2022-10-06T01:50:34.513Z,84.11
2022-10-06T01:54:35.906Z,82.99
2022-10-06T01:58:37.162Z,83.25
2022-10-06T02:02:38.585Z,83.95
2022-10-06T02:06:39.907Z,84.42
2022-10-06T02:10:41.203Z,85.38
2022-10-06T02:14:42.601Z,85.92
2022-10-06T02:18:44.462Z,86.01
2022-10-06T02:22:45.729Z,86.55
2022-10-06T02:26:47.022Z,87.57
2022-10-06T02:30:48.449Z,87.73
2022-10-06T02:34:50.383Z,87.97
2022-10-06T02:38:51.637Z,89.03
2022-10-06T02:42:53.200Z,89.53
2022-10-06T02:46:54.678Z,90.44
2022-10-06T02:50:56.034Z,91.12
2022-10-06T02:54:57.276Z,91.56
2022-10-06T02:58:58.990Z,91.52
2022-10-06T03:03:00.262Z,91.68
2022-10-06T03:07:01.545Z,92.32
2022-10-06T03:11:03.680Z,91.65
2022-10-06T03:15:05.383Z,91.65
2022-10-06T03:19:08.028Z,91.90
2022-10-06T03:23:13.425Z,91.87
2022-10-06T03:27:15.514Z,91.99
2022-10-06T03:31:17.866Z,92.25
2022-10-06T03:35:19.208Z,92.68
2022-10-06T03:39:20.693Z,92.49
2022-10-06T03:43:22.385Z,92.54
2022-10-06T03:47:23.853Z,92.89
2022-10-06T03:51:29.708Z,93.04
2022-10-06T03:55:31.026Z,93.30
2022-10-06T03:59:34.157Z,92.94
2022-10-06T04:03:35.748Z,93.13
2022-10-06T04:07:36.976Z,92.77
2022-10-06T04:11:39.245Z,92.82
2022-10-06T04:15:40.472Z,93.39
2022-10-06T04:19:41.989Z,93.36
2022-10-06T04:23:43.431Z,93.38
2022-10-06T04:27:45.099Z,93.69
2022-10-06T04:31:46.808Z,93.83
2022-10-06T04:35:48.125Z,93.34
2022-10-06T04:39:49.387Z,93.81
2022-10-06T04:43:51.043Z,93.89
2022-10-06T04:47:52.284Z,94.42
2022-10-06T04:51:53.632Z,94.89
2022-10-06T04:56:11.220Z,94.90
2022-10-06T05:00:25.365Z,95.41
2022-10-06T05:04:26.676Z,95.84
2022-10-06T05:08:28.442Z,95.52
2022-10-06T05:12:30.960Z,95.63
2022-10-06T05:16:33.000Z,95.71
2022-10-06T05:20:34.371Z,95.59
2022-10-06T05:24:35.665Z,95.00
2022-10-06T05:28:37.341Z,94.85
2022-10-06T05:32:38.679Z,95.44
2022-10-06T05:36:40.058Z,95.41
2022-10-06T05:40:41.443Z,95.28
2022-10-06T05:44:42.746Z,95.23
2022-10-06T05:48:50.936Z,95.66
2022-10-06T05:52:54.197Z,94.99
2022-10-06T05:56:55.714Z,95.37
2022-10-06T06:01:06.104Z,95.90
2022-10-06T06:05:07.445Z,96.50
2022-10-06T06:09:10.038Z,96.79
2022-10-06T06:13:11.917Z,96.68
2022-10-06T06:17:13.148Z,97.03
2022-10-06T06:21:14.421Z,96.77
2022-10-06T06:25:15.738Z,96.83
2022-10-06T06:29:16.998Z,97.98
2022-10-06T06:33:18.266Z,98.38
2022-10-06T06:37:19.591Z,97.91
2022-10-06T06:41:25.781Z,98.80
2022-10-06T06:45:27.184Z,98.01
2022-10-06T06:49:28.459Z,97.79
2022-10-06T06:53:30.094Z,97.72
2022-10-06T06:57:31.424Z,97.04
2022-10-06T07:01:32.741Z,95.97
2022-10-06T07:05:34.069Z,93.14
2022-10-06T07:09:35.760Z,90.97
2022-10-06T07:13:37.009Z,88.24
2022-10-06T07:17:57.238Z,84.85
2022-10-06T07:22:18.508Z,80.89
2022-10-06T07:26:19.909Z,77.69
2022-10-06T07:30:25.541Z,74.94
2022-10-06T07:34:30.332Z,73.74
2022-10-06T07:38:32.259Z,72.87
2022-10-06T07:42:48.145Z,72.89
2022-10-06T07:46:49.441Z,71.67
2022-10-06T07:50:52.589Z,72.03
2022-10-06T07:54:54.065Z,71.93
2022-10-06T07:58:56.164Z,72.70
2022-10-06T08:02:57.472Z,71.77
2022-10-06T08:06:59.724Z,70.21
2022-10-06T08:11:01.928Z,70.32
2022-10-06T08:15:07.632Z,69.57
2022-10-06T08:19:09.288Z,68.04
2022-10-06T08:23:14.476Z,66.48
2022-10-06T08:27:15.914Z,65.10
2022-10-06T08:31:18.677Z,64.57
2022-10-06T08:35:21.299Z,62.74
2022-10-06T08:39:22.706Z,60.34
2022-10-06T08:43:25.973Z,62.71
2022-10-06T08:47:28.991Z,61.17
2022-10-06T08:51:44.329Z,59.83
2022-10-06T08:55:48.013Z,60.96
2022-10-06T08:59:53.307Z,61.50
2022-10-06T09:03:57.252Z,62.27
2022-10-06T09:08:21.769Z,59.92
2022-10-06T09:12:45.832Z,58.11
2022-10-06T09:16:50.219Z,57.13
2022-10-06T09:21:12.009Z,55.89
2022-10-06T09:25:26.530Z,57.39
2022-10-06T09:29:31.198Z,56.47
2022-10-06T09:33:37.232Z,56.55
2022-10-06T09:37:57.217Z,57.09
2022-10-06T09:42:00.561Z,56.74
2022-10-06T09:46:20.929Z,56.71
2022-10-06T09:50:23.813Z,54.10
2022-10-06T09:54:25.281Z,55.39
2022-10-06T09:58:34.483Z,55.89
2022-10-06T10:02:37.171Z,54.49
2022-10-06T10:06:40.061Z,55.57
2022-10-06T10:10:41.460Z,55.43
2022-10-06T10:14:42.737Z,53.13
2022-10-06T10:18:48.293Z,53.71
2022-10-06T10:22:49.890Z,52.75
2022-10-06T10:27:14.308Z,53.29
2022-10-06T10:31:20.211Z,52.45
2022-10-06T10:35:27.572Z,49.48
2022-10-06T10:39:38.084Z,50.12
2022-10-06T10:43:40.141Z,50.42
2022-10-06T10:47:45.440Z,50.45
2022-10-06T10:51:53.024Z,51.55
2022-10-06T10:55:54.328Z,51.78
2022-10-06T11:00:01.469Z,49.70
2022-10-06T11:04:03.111Z,52.02
2022-10-06T11:08:13.235Z,50.91
2022-10-06T11:12:14.438Z,48.74
2022-10-06T11:16:24.623Z,48.36
2022-10-06T11:20:37.969Z,48.25
2022-10-06T11:24:48.308Z,49.94
2022-10-06T11:28:56.524Z,47.72
2022-10-06T11:33:07.021Z,48.00
2022-10-06T11:37:37.642Z,48.41
2022-10-06T11:41:41.477Z,47.27
2022-10-06T11:45:45.913Z,46.13
2022-10-06T11:49:49.383Z,47.18
2022-10-06T11:53:51.260Z,48.06
2022-10-06T11:58:08.650Z,46.05
2022-10-06T12:02:38.066Z,46.19
2022-10-06T12:06:42.568Z,45.79
2022-10-06T12:10:48.208Z,46.15
2022-10-06T12:19:20.860Z,46.76
2022-10-06T12:23:42.073Z,46.67
2022-10-06T12:27:52.494Z,45.67
2022-10-06T12:32:13.043Z,45.66
2022-10-06T12:36:19.129Z,46.11
2022-10-06T12:40:42.983Z,47.25
2022-10-06T12:44:51.632Z,47.38
2022-10-06T12:49:03.172Z,45.40
2022-10-06T12:53:11.725Z,44.27
2022-10-06T12:57:18.555Z,45.33
2022-10-06T13:01:21.938Z,43.42
2022-10-06T13:05:23.607Z,45.60
2022-10-06T13:09:25.038Z,45.68
2022-10-06T13:13:26.416Z,46.26
2022-10-06T13:17:27.712Z,44.67
2022-10-06T13:21:30.139Z,45.35
2022-10-06T13:25:40.445Z,45.88
2022-10-06T13:29:41.744Z,44.21
2022-10-06T13:33:44.233Z,45.88
2022-10-06T13:37:45.789Z,44.87
2022-10-06T13:41:52.221Z,45.70
2022-10-06T13:45:54.321Z,45.07
2022-10-06T13:50:19.733Z,44.66
2022-10-06T13:54:46.077Z,46.02
2022-10-06T13:58:47.878Z,46.45
2022-10-06T14:02:51.246Z,45.80
2022-10-06T14:06:54.145Z,45.17
2022-10-06T14:10:56.899Z,46.11
2022-10-06T14:14:59.045Z,45.20
2022-10-06T14:19:03.797Z,45.10
2022-10-06T14:23:23.829Z,45.83
2022-10-06T14:27:25.104Z,46.98
2022-10-06T14:31:28.108Z,46.56
2022-10-06T14:35:29.474Z,45.94
2022-10-06T14:39:30.757Z,47.46
2022-10-06T14:43:32.933Z,45.77
2022-10-06T14:47:34.321Z,47.01
2022-10-06T14:51:37.185Z,47.62
2022-10-06T14:55:38.639Z,47.69
2022-10-06T14:59:39.981Z,47.87
2022-10-06T15:03:42.666Z,47.14
2022-10-06T15:08:05.806Z,49.58
2022-10-06T15:12:07.081Z,51.01
2022-10-06T15:16:08.700Z,53.19
2022-10-06T15:20:12.620Z,53.87
2022-10-06T15:24:15.881Z,51.83
2022-10-06T15:28:36.215Z,50.86
2022-10-06T15:32:37.540Z,49.53
2022-10-06T15:36:39.697Z,48.64
2022-10-06T15:40:40.955Z,49.17
2022-10-06T15:44:42.172Z,50.25
2022-10-06T15:48:44.649Z,49.89
2022-10-06T15:52:46.112Z,52.46
2022-10-06T15:56:48.389Z,49.53
2022-10-06T16:00:49.801Z,54.44
2022-10-06T16:05:17.553Z,57.75
2022-10-06T16:09:18.962Z,61.34
2022-10-06T16:13:20.360Z,62.91
2022-10-06T16:17:21.609Z,65.64
2022-10-06T16:21:23.420Z,66.25
2022-10-06T16:25:24.647Z,67.60
2022-10-06T16:29:26.472Z,69.41
2022-10-06T16:33:27.694Z,70.58
2022-10-06T16:37:28.973Z,72.00
2022-10-06T16:41:30.264Z,73.23
2022-10-06T16:45:31.600Z,72.96
2022-10-06T16:49:32.832Z,74.20
2022-10-06T16:53:38.460Z,74.43
2022-10-06T16:57:39.729Z,74.45
2022-10-06T17:01:41.368Z,75.29
2022-10-06T17:05:42.601Z,75.24
2022-10-06T17:09:55.981Z,76.99
2022-10-06T17:14:05.723Z,77.62
2022-10-06T17:18:07.369Z,78.18
2022-10-06T17:22:08.656Z,78.48
2022-10-06T17:26:16.668Z,78.61
2022-10-06T17:30:17.923Z,79.11
2022-10-06T17:34:21.527Z,79.88
2022-10-06T17:38:26.421Z,79.76
2022-10-06T17:42:27.729Z,80.20
2022-10-06T17:46:32.330Z,80.96
2022-10-06T17:50:33.747Z,80.74
2022-10-06T17:54:35.008Z,80.94
2022-10-06T17:58:37.044Z,81.86
2022-10-06T18:02:40.436Z,81.84
2022-10-06T18:06:43.322Z,82.42
2022-10-06T18:11:06.392Z,82.16
2022-10-06T18:15:10.021Z,82.67
2022-10-06T18:19:13.380Z,82.69
2022-10-06T18:23:15.769Z,83.09
2022-10-06T18:27:17.140Z,83.79
2022-10-06T18:31:18.965Z,84.38
2022-10-06T18:39:44.920Z,85.12
2022-10-06T18:43:46.417Z,85.38
2022-10-06T18:48:06.591Z,85.90
2022-10-06T18:52:08.442Z,85.85
2022-10-06T18:56:10.735Z,86.22
2022-10-06T19:00:14.227Z,86.86
2022-10-06T19:04:17.575Z,87.30
2022-10-06T19:08:19.854Z,87.64
2022-10-06T19:12:22.100Z,88.05
2022-10-06T19:16:23.729Z,88.18
2022-10-06T19:20:25.166Z,87.65
2022-10-06T19:24:28.588Z,88.16
2022-10-06T19:28:31.470Z,88.40
2022-10-06T19:32:32.966Z,89.03
2022-10-06T19:36:36.094Z,88.99
2022-10-06T19:40:37.448Z,89.10
2022-10-06T19:44:42.933Z,89.22
2022-10-06T19:48:44.536Z,89.21
2022-10-06T19:52:45.845Z,89.79
2022-10-06T19:56:47.387Z,90.18
2022-10-06T20:00:48.693Z,89.99
2022-10-06T20:04:50.534Z,90.06
2022-10-06T20:08:52.452Z,90.56
2022-10-06T20:12:53.715Z,90.42
2022-10-06T20:16:55.476Z,90.84
2022-10-06T20:20:58.620Z,90.39
2022-10-06T20:25:02.168Z,90.49
2022-10-06T20:29:05.873Z,90.68
2022-10-06T20:33:07.461Z,91.05
2022-10-06T20:37:08.733Z,90.65
2022-10-06T20:41:10.015Z,90.32
2022-10-06T20:45:11.260Z,91.13
2022-10-06T20:49:22.012Z,91.12
2022-10-06T20:53:26.956Z,91.20
2022-10-06T20:57:33.508Z,91.12
2022-10-06T21:01:36.374Z,91.50
2022-10-06T21:05:37.877Z,91.44
2022-10-06T21:09:39.125Z,91.66
2022-10-06T21:13:40.864Z,91.64
2022-10-06T21:17:46.446Z,91.93
2022-10-06T21:21:53.221Z,92.00
2022-10-06T21:25:55.731Z,91.79
2022-10-06T21:29:57.012Z,92.08
2022-10-06T21:34:00.308Z,91.97
2022-10-06T21:38:01.547Z,92.18
2022-10-06T21:42:03.972Z,91.93
2022-10-06T21:46:27.447Z,92.17
2022-10-06T21:50:27.326Z,92.24
2022-10-06T21:54:28.673Z,91.89
2022-10-06T21:58:29.889Z,91.98
2022-10-06T22:02:31.131Z,91.81
2022-10-06T22:06:33.392Z,92.08
2022-10-06T22:10:34.644Z,92.15
2022-10-06T22:14:35.877Z,92.44
2022-10-06T22:18:38.327Z,92.61
2022-10-06T22:22:39.539Z,92.55
2022-10-06T22:26:41.473Z,92.64
2022-10-06T22:30:42.682Z,92.62
2022-10-06T22:34:43.931Z,92.31
2022-10-06T22:38:45.437Z,92.66
2022-10-06T22:42:46.703Z,92.68
2022-10-06T22:46:47.989Z,92.41
2022-10-06T22:50:49.828Z,92.05
2022-10-06T22:54:51.033Z,92.24
2022-10-06T22:58:52.312Z,92.23
2022-10-06T23:02:54.288Z,92.58
2022-10-06T23:06:55.658Z,92.06
2022-10-06T23:11:02.965Z,92.42
2022-10-06T23:15:04.505Z,92.30
2022-10-06T23:19:05.750Z,92.46
2022-10-06T23:23:07.768Z,92.46
2022-10-06T23:27:09.104Z,92.76
2022-10-06T23:31:10.906Z,93.22
2022-10-06T23:35:12.240Z,92.96
2022-10-06T23:39:13.805Z,92.88
2022-10-06T23:43:15.008Z,92.86
2022-10-06T23:47:16.234Z,92.74
2022-10-06T23:51:17.722Z,92.64
2022-10-06T23:55:18.965Z,92.49
2022-10-06T23:59:20.980Z,93.05
